« Back
NWS Peachtree City, Ga » Text Product » ATL Terminal Aerodrome Forecast


Printer-friendly Version
Current Version              Previous Versions:   1  2  3  4  5  6  7  8  9  

Terminal Aerodrome Forecast

760
FTUS42 KFFC 261950 AAA
TAFATL
TAF AMD
KATL 261950Z 2620/2724 20005KT P6SM VCSH SCT050 BKN100
     FM262100 13006KT P6SM SCT060 SCT120
     FM270100 14005KT P6SM SCT090 BKN250
     FM271500 19007KT P6SM SCT035
     FM271800 22009KT P6SM VCSH SCT050 PROB30 2720/2724 5SM -TSRA
      BKN035CB=

USA.gov is the U.S. government's official web portal to all federal, state and local government web resources and services.